sensor_id;sensor_type;location;lat;lon;timestamp;P1;durP1;ratioP1;P2;durP2;ratioP2
46415;SDS011;32620;51.704;7.822;2023-09-19T00:00:22;9.07;;;3.90;;
46415;SDS011;32620;51.704;7.822;2023-09-19T00:02:53;11.98;;;3.80;;
46415;SDS011;32620;51.704;7.822;2023-09-19T00:05:19;7.43;;;4.20;;
46415;SDS011;32620;51.704;7.822;2023-09-19T00:07:50;6.38;;;3.65;;
46415;SDS011;32620;51.704;7.822;2023-09-19T00:10:20;9.63;;;4.13;;
46415;SDS011;32620;51.704;7.822;2023-09-19T00:12:49;10.43;;;4.05;;
46415;SDS011;32620;51.704;7.822;2023-09-19T00:15:17;9.57;;;4.13;;
46415;SDS011;32620;51.704;7.822;2023-09-19T00:17:44;11.32;;;4.22;;
46415;SDS011;32620;51.704;7.822;2023-09-19T00:20:09;12.48;;;4.30;;
46415;SDS011;32620;51.704;7.822;2023-09-19T00:22:39;9.10;;;4.43;;
46415;SDS011;32620;51.704;7.822;2023-09-19T00:25:06;14.20;;;4.65;;
46415;SDS011;32620;51.704;7.822;2023-09-19T00:27:32;8.27;;;4.53;;
46415;SDS011;32620;51.704;7.822;2023-09-19T00:29:58;9.07;;;4.30;;
46415;SDS011;32620;51.704;7.822;2023-09-19T00:32:25;10.13;;;4.35;;
46415;SDS011;32620;51.704;7.822;2023-09-19T00:34:56;10.70;;;4.82;;
46415;SDS011;32620;51.704;7.822;2023-09-19T00:37:21;11.75;;;4.05;;
46415;SDS011;32620;51.704;7.822;2023-09-19T00:39:47;9.52;;;3.50;;
46415;SDS011;32620;51.704;7.822;2023-09-19T00:42:18;12.68;;;3.90;;
46415;SDS011;32620;51.704;7.822;2023-09-19T00:44:46;9.35;;;3.92;;
46415;SDS011;32620;51.704;7.822;2023-09-19T00:47:12;7.50;;;3.67;;
46415;SDS011;32620;51.704;7.822;2023-09-19T00:49:42;11.20;;;3.58;;
46415;SDS011;32620;51.704;7.822;2023-09-19T00:52:10;11.50;;;3.70;;
46415;SDS011;32620;51.704;7.822;2023-09-19T00:54:37;11.50;;;4.10;;
46415;SDS011;32620;51.704;7.822;2023-09-19T00:57:02;9.98;;;3.60;;
46415;SDS011;32620;51.704;7.822;2023-09-19T00:59:28;12.38;;;3.85;;
46415;SDS011;32620;51.704;7.822;2023-09-19T01:01:55;10.93;;;3.83;;
46415;SDS011;32620;51.704;7.822;2023-09-19T01:04:21;15.68;;;4.32;;
46415;SDS011;32620;51.704;7.822;2023-09-19T01:06:48;13.35;;;3.80;;
46415;SDS011;32620;51.704;7.822;2023-09-19T01:09:18;11.48;;;3.60;;
46415;SDS011;32620;51.704;7.822;2023-09-19T01:11:45;13.27;;;3.67;;
46415;SDS011;32620;51.704;7.822;2023-09-19T01:14:20;12.23;;;3.13;;
46415;SDS011;32620;51.704;7.822;2023-09-19T01:22:51;12.60;;;3.80;;
46415;SDS011;32620;51.704;7.822;2023-09-19T01:28:31;12.15;;;3.30;;
46415;SDS011;32620;51.704;7.822;2023-09-19T01:31:06;15.80;;;4.10;;
46415;SDS011;32620;51.704;7.822;2023-09-19T01:34:07;16.65;;;3.33;;
46415;SDS011;32620;51.704;7.822;2023-09-19T01:36:26;14.48;;;3.80;;
46415;SDS011;32620;51.704;7.822;2023-09-19T01:38:54;11.23;;;3.22;;
46415;SDS011;32620;51.704;7.822;2023-09-19T01:41:24;10.95;;;3.67;;
46415;SDS011;32620;51.704;7.822;2023-09-19T01:43:54;14.68;;;3.40;;
46415;SDS011;32620;51.704;7.822;2023-09-19T01:46:24;14.57;;;3.17;;
46415;SDS011;32620;51.704;7.822;2023-09-19T01:54:26;9.07;;;3.40;;
46415;SDS011;32620;51.704;7.822;2023-09-19T01:56:59;17.88;;;3.72;;
46415;SDS011;32620;51.704;7.822;2023-09-19T01:59:34;9.52;;;2.97;;
46415;SDS011;32620;51.704;7.822;2023-09-19T02:02:03;16.10;;;3.97;;
46415;SDS011;32620;51.704;7.822;2023-09-19T02:04:32;14.32;;;3.20;;
46415;SDS011;32620;51.704;7.822;2023-09-19T02:07:00;16.25;;;3.58;;
46415;SDS011;32620;51.704;7.822;2023-09-19T02:09:26;15.23;;;3.70;;
46415;SDS011;32620;51.704;7.822;2023-09-19T02:11:51;13.55;;;3.90;;
46415;SDS011;32620;51.704;7.822;2023-09-19T02:14:17;13.82;;;3.70;;
46415;SDS011;32620;51.704;7.822;2023-09-19T02:16:44;16.58;;;3.47;;
46415;SDS011;32620;51.704;7.822;2023-09-19T02:19:10;13.77;;;3.65;;
46415;SDS011;32620;51.704;7.822;2023-09-19T02:21:36;12.50;;;3.63;;
46415;SDS011;32620;51.704;7.822;2023-09-19T02:24:04;16.25;;;3.47;;
46415;SDS011;32620;51.704;7.822;2023-09-19T02:26:30;13.48;;;3.83;;
46415;SDS011;32620;51.704;7.822;2023-09-19T02:28:56;14.45;;;3.83;;
46415;SDS011;32620;51.704;7.822;2023-09-19T02:31:21;12.13;;;3.33;;
46415;SDS011;32620;51.704;7.822;2023-09-19T02:33:47;16.67;;;3.67;;
46415;SDS011;32620;51.704;7.822;2023-09-19T02:36:12;15.07;;;3.80;;
46415;SDS011;32620;51.704;7.822;2023-09-19T02:38:38;17.20;;;3.70;;
46415;SDS011;32620;51.704;7.822;2023-09-19T02:41:03;13.98;;;3.40;;
46415;SDS011;32620;51.704;7.822;2023-09-19T02:43:29;16.77;;;3.95;;
46415;SDS011;32620;51.704;7.822;2023-09-19T02:45:55;13.88;;;3.83;;
46415;SDS011;32620;51.704;7.822;2023-09-19T02:48:22;16.27;;;3.88;;
46415;SDS011;32620;51.704;7.822;2023-09-19T02:50:50;12.27;;;3.70;;
46415;SDS011;32620;51.704;7.822;2023-09-19T02:53:17;12.65;;;3.70;;
46415;SDS011;32620;51.704;7.822;2023-09-19T02:55:43;17.23;;;3.88;;
46415;SDS011;32620;51.704;7.822;2023-09-19T02:58:09;13.55;;;3.88;;
46415;SDS011;32620;51.704;7.822;2023-09-19T03:00:36;22.30;;;3.97;;
46415;SDS011;32620;51.704;7.822;2023-09-19T03:03:02;16.40;;;3.70;;
46415;SDS011;32620;51.704;7.822;2023-09-19T03:05:28;18.75;;;4.40;;
46415;SDS011;32620;51.704;7.822;2023-09-19T03:07:55;14.23;;;3.33;;
46415;SDS011;32620;51.704;7.822;2023-09-19T03:10:22;15.80;;;3.92;;
46415;SDS011;32620;51.704;7.822;2023-09-19T03:12:49;14.85;;;3.65;;
46415;SDS011;32620;51.704;7.822;2023-09-19T03:15:15;21.08;;;3.92;;
46415;SDS011;32620;51.704;7.822;2023-09-19T03:17:43;17.60;;;3.83;;
46415;SDS011;32620;51.704;7.822;2023-09-19T03:20:10;17.25;;;3.92;;
46415;SDS011;32620;51.704;7.822;2023-09-19T03:22:38;11.98;;;3.72;;
46415;SDS011;32620;51.704;7.822;2023-09-19T03:25:05;17.33;;;3.45;;
46415;SDS011;32620;51.704;7.822;2023-09-19T03:27:33;14.90;;;3.65;;
46415;SDS011;32620;51.704;7.822;2023-09-19T03:29:59;12.93;;;3.78;;
46415;SDS011;32620;51.704;7.822;2023-09-19T03:32:25;11.93;;;3.35;;
46415;SDS011;32620;51.704;7.822;2023-09-19T03:34:51;11.23;;;3.10;;
46415;SDS011;32620;51.704;7.822;2023-09-19T03:37:17;14.93;;;4.03;;
46415;SDS011;32620;51.704;7.822;2023-09-19T03:39:43;13.23;;;3.75;;
46415;SDS011;32620;51.704;7.822;2023-09-19T03:42:08;20.25;;;3.83;;
46415;SDS011;32620;51.704;7.822;2023-09-19T03:44:34;21.85;;;4.82;;
46415;SDS011;32620;51.704;7.822;2023-09-19T03:47:00;10.32;;;2.85;;
46415;SDS011;32620;51.704;7.822;2023-09-19T03:49:25;14.52;;;3.60;;
46415;SDS011;32620;51.704;7.822;2023-09-19T03:51:51;20.40;;;3.60;;
46415;SDS011;32620;51.704;7.822;2023-09-19T03:54:17;18.15;;;3.92;;
46415;SDS011;32620;51.704;7.822;2023-09-19T03:56:44;15.80;;;4.32;;
46415;SDS011;32620;51.704;7.822;2023-09-19T03:59:10;16.77;;;4.20;;
46415;SDS011;32620;51.704;7.822;2023-09-19T04:01:37;21.92;;;4.00;;
46415;SDS011;32620;51.704;7.822;2023-09-19T04:04:02;21.55;;;4.38;;
46415;SDS011;32620;51.704;7.822;2023-09-19T04:06:34;15.63;;;3.55;;
46415;SDS011;32620;51.704;7.822;2023-09-19T04:09:00;17.25;;;3.70;;
46415;SDS011;32620;51.704;7.822;2023-09-19T04:11:26;17.15;;;4.07;;
46415;SDS011;32620;51.704;7.822;2023-09-19T04:13:52;14.90;;;3.28;;
46415;SDS011;32620;51.704;7.822;2023-09-19T04:16:18;18.20;;;4.05;;
46415;SDS011;32620;51.704;7.822;2023-09-19T04:18:44;13.32;;;3.92;;
46415;SDS011;32620;51.704;7.822;2023-09-19T04:21:10;12.15;;;3.42;;
46415;SDS011;32620;51.704;7.822;2023-09-19T04:23:35;17.00;;;3.90;;
46415;SDS011;32620;51.704;7.822;2023-09-19T04:26:01;20.90;;;3.72;;
46415;SDS011;32620;51.704;7.822;2023-09-19T04:28:29;15.68;;;3.70;;
46415;SDS011;32620;51.704;7.822;2023-09-19T04:30:54;13.68;;;3.67;;
46415;SDS011;32620;51.704;7.822;2023-09-19T04:33:20;13.70;;;3.17;;
46415;SDS011;32620;51.704;7.822;2023-09-19T04:35:48;18.63;;;3.65;;
46415;SDS011;32620;51.704;7.822;2023-09-19T04:38:14;14.70;;;3.15;;
46415;SDS011;32620;51.704;7.822;2023-09-19T04:40:40;12.90;;;3.13;;
46415;SDS011;32620;51.704;7.822;2023-09-19T04:43:06;13.45;;;3.42;;
46415;SDS011;32620;51.704;7.822;2023-09-19T04:45:32;17.10;;;4.10;;
46415;SDS011;32620;51.704;7.822;2023-09-19T04:47:58;14.25;;;3.95;;
46415;SDS011;32620;51.704;7.822;2023-09-19T04:50:23;19.33;;;3.28;;
46415;SDS011;32620;51.704;7.822;2023-09-19T04:52:52;13.10;;;3.55;;
46415;SDS011;32620;51.704;7.822;2023-09-19T04:55:18;16.33;;;2.95;;
46415;SDS011;32620;51.704;7.822;2023-09-19T04:57:45;14.55;;;3.67;;
46415;SDS011;32620;51.704;7.822;2023-09-19T05:00:13;13.68;;;3.47;;
46415;SDS011;32620;51.704;7.822;2023-09-19T05:02:40;20.02;;;3.75;;
46415;SDS011;32620;51.704;7.822;2023-09-19T05:05:07;16.98;;;3.47;;
46415;SDS011;32620;51.704;7.822;2023-09-19T05:07:33;16.80;;;3.60;;
46415;SDS011;32620;51.704;7.822;2023-09-19T05:09:59;14.40;;;3.70;;
46415;SDS011;32620;51.704;7.822;2023-09-19T05:12:26;13.32;;;3.47;;
46415;SDS011;32620;51.704;7.822;2023-09-19T05:14:52;18.63;;;4.00;;
46415;SDS011;32620;51.704;7.822;2023-09-19T05:17:17;14.63;;;3.70;;
46415;SDS011;32620;51.704;7.822;2023-09-19T05:19:43;18.48;;;3.95;;
46415;SDS011;32620;51.704;7.822;2023-09-19T05:22:09;14.52;;;3.97;;
46415;SDS011;32620;51.704;7.822;2023-09-19T05:24:34;18.63;;;4.00;;
46415;SDS011;32620;51.704;7.822;2023-09-19T05:27:00;12.82;;;3.38;;
46415;SDS011;32620;51.704;7.822;2023-09-19T05:29:26;15.23;;;3.38;;
46415;SDS011;32620;51.704;7.822;2023-09-19T05:31:51;16.52;;;3.65;;
46415;SDS011;32620;51.704;7.822;2023-09-19T05:34:19;17.40;;;3.47;;
46415;SDS011;32620;51.704;7.822;2023-09-19T05:36:45;14.73;;;4.10;;
46415;SDS011;32620;51.704;7.822;2023-09-19T05:39:10;19.00;;;4.25;;
46415;SDS011;32620;51.704;7.822;2023-09-19T05:41:37;13.60;;;3.58;;
46415;SDS011;32620;51.704;7.822;2023-09-19T05:44:05;20.00;;;3.90;;
46415;SDS011;32620;51.704;7.822;2023-09-19T05:46:31;11.98;;;3.35;;
46415;SDS011;32620;51.704;7.822;2023-09-19T05:48:57;17.85;;;3.85;;
46415;SDS011;32620;51.704;7.822;2023-09-19T05:51:23;20.50;;;3.67;;
46415;SDS011;32620;51.704;7.822;2023-09-19T05:53:50;16.05;;;4.07;;
46415;SDS011;32620;51.704;7.822;2023-09-19T05:56:15;12.65;;;3.15;;
46415;SDS011;32620;51.704;7.822;2023-09-19T05:58:43;16.13;;;3.80;;
46415;SDS011;32620;51.704;7.822;2023-09-19T06:01:09;13.82;;;3.60;;
46415;SDS011;32620;51.704;7.822;2023-09-19T06:03:35;20.98;;;4.45;;
46415;SDS011;32620;51.704;7.822;2023-09-19T06:06:01;16.00;;;3.55;;
46415;SDS011;32620;51.704;7.822;2023-09-19T06:08:27;14.23;;;3.47;;
46415;SDS011;32620;51.704;7.822;2023-09-19T06:10:53;15.60;;;3.97;;
46415;SDS011;32620;51.704;7.822;2023-09-19T06:13:19;14.48;;;3.92;;
46415;SDS011;32620;51.704;7.822;2023-09-19T06:15:45;15.27;;;3.60;;
46415;SDS011;32620;51.704;7.822;2023-09-19T06:18:12;19.63;;;4.25;;
46415;SDS011;32620;51.704;7.822;2023-09-19T06:20:42;12.13;;;3.70;;
46415;SDS011;32620;51.704;7.822;2023-09-19T06:23:09;14.93;;;3.65;;
46415;SDS011;32620;51.704;7.822;2023-09-19T06:25:35;16.10;;;4.18;;
46415;SDS011;32620;51.704;7.822;2023-09-19T06:28:00;17.95;;;4.43;;
46415;SDS011;32620;51.704;7.822;2023-09-19T06:30:30;17.05;;;4.30;;
46415;SDS011;32620;51.704;7.822;2023-09-19T06:32:56;14.70;;;4.50;;
46415;SDS011;32620;51.704;7.822;2023-09-19T06:35:22;22.92;;;4.65;;
46415;SDS011;32620;51.704;7.822;2023-09-19T06:37:48;17.52;;;5.45;;
46415;SDS011;32620;51.704;7.822;2023-09-19T06:40:14;19.58;;;4.78;;
46415;SDS011;32620;51.704;7.822;2023-09-19T06:42:40;16.00;;;4.15;;
46415;SDS011;32620;51.704;7.822;2023-09-19T06:45:11;11.95;;;3.83;;
46415;SDS011;32620;51.704;7.822;2023-09-19T06:47:42;18.25;;;4.97;;
46415;SDS011;32620;51.704;7.822;2023-09-19T06:50:10;16.00;;;3.70;;
46415;SDS011;32620;51.704;7.822;2023-09-19T06:52:39;15.48;;;3.30;;
46415;SDS011;32620;51.704;7.822;2023-09-19T06:55:06;13.77;;;3.28;;
46415;SDS011;32620;51.704;7.822;2023-09-19T06:57:32;17.40;;;4.22;;
46415;SDS011;32620;51.704;7.822;2023-09-19T06:59:57;16.65;;;3.80;;
46415;SDS011;32620;51.704;7.822;2023-09-19T07:02:23;15.25;;;4.65;;
46415;SDS011;32620;51.704;7.822;2023-09-19T07:04:49;16.42;;;4.78;;
46415;SDS011;32620;51.704;7.822;2023-09-19T07:07:15;17.38;;;4.65;;
46415;SDS011;32620;51.704;7.822;2023-09-19T07:09:41;14.75;;;4.28;;
46415;SDS011;32620;51.704;7.822;2023-09-19T07:12:07;16.23;;;3.78;;
46415;SDS011;32620;51.704;7.822;2023-09-19T07:14:33;16.38;;;3.67;;
46415;SDS011;32620;51.704;7.822;2023-09-19T07:16:58;17.92;;;4.63;;
46415;SDS011;32620;51.704;7.822;2023-09-19T07:19:25;16.20;;;4.53;;
46415;SDS011;32620;51.704;7.822;2023-09-19T07:21:53;15.80;;;3.60;;
46415;SDS011;32620;51.704;7.822;2023-09-19T07:24:18;14.60;;;4.25;;
46415;SDS011;32620;51.704;7.822;2023-09-19T07:26:45;11.20;;;3.58;;
46415;SDS011;32620;51.704;7.822;2023-09-19T07:29:10;12.98;;;3.55;;
46415;SDS011;32620;51.704;7.822;2023-09-19T07:31:36;14.18;;;3.53;;
46415;SDS011;32620;51.704;7.822;2023-09-19T07:34:01;15.77;;;4.18;;
46415;SDS011;32620;51.704;7.822;2023-09-19T07:36:29;20.52;;;4.85;;
46415;SDS011;32620;51.704;7.822;2023-09-19T07:38:55;13.23;;;3.70;;
46415;SDS011;32620;51.704;7.822;2023-09-19T07:41:23;13.50;;;3.90;;
46415;SDS011;32620;51.704;7.822;2023-09-19T07:43:48;14.05;;;3.90;;
46415;SDS011;32620;51.704;7.822;2023-09-19T07:46:14;16.60;;;3.47;;
46415;SDS011;32620;51.704;7.822;2023-09-19T07:48:40;13.60;;;3.58;;
46415;SDS011;32620;51.704;7.822;2023-09-19T07:51:06;9.68;;;3.33;;
46415;SDS011;32620;51.704;7.822;2023-09-19T07:53:33;15.32;;;3.67;;
46415;SDS011;32620;51.704;7.822;2023-09-19T07:56:07;11.60;;;3.28;;
46415;SDS011;32620;51.704;7.822;2023-09-19T07:58:34;17.15;;;3.85;;
46415;SDS011;32620;51.704;7.822;2023-09-19T08:01:04;12.60;;;3.78;;
46415;SDS011;32620;51.704;7.822;2023-09-19T08:03:31;13.68;;;3.42;;
46415;SDS011;32620;51.704;7.822;2023-09-19T08:05:57;12.88;;;4.32;;
46415;SDS011;32620;51.704;7.822;2023-09-19T08:08:23;13.48;;;3.78;;
46415;SDS011;32620;51.704;7.822;2023-09-19T08:10:52;15.90;;;4.05;;
46415;SDS011;32620;51.704;7.822;2023-09-19T08:13:21;14.02;;;3.90;;
46415;SDS011;32620;51.704;7.822;2023-09-19T08:15:47;16.27;;;3.55;;
46415;SDS011;32620;51.704;7.822;2023-09-19T08:18:14;16.20;;;3.42;;
46415;SDS011;32620;51.704;7.822;2023-09-19T08:20:40;19.95;;;3.60;;
46415;SDS011;32620;51.704;7.822;2023-09-19T08:23:07;15.95;;;3.70;;
46415;SDS011;32620;51.704;7.822;2023-09-19T08:25:33;15.38;;;3.17;;
46415;SDS011;32620;51.704;7.822;2023-09-19T08:27:59;18.85;;;3.70;;
46415;SDS011;32620;51.704;7.822;2023-09-19T08:30:28;10.77;;;3.40;;
46415;SDS011;32620;51.704;7.822;2023-09-19T08:32:57;14.68;;;3.58;;
46415;SDS011;32620;51.704;7.822;2023-09-19T08:35:23;16.08;;;3.55;;
46415;SDS011;32620;51.704;7.822;2023-09-19T08:37:49;12.85;;;3.40;;
46415;SDS011;32620;51.704;7.822;2023-09-19T08:40:15;25.00;;;4.43;;
46415;SDS011;32620;51.704;7.822;2023-09-19T08:42:56;15.68;;;3.63;;
46415;SDS011;32620;51.704;7.822;2023-09-19T08:45:22;15.25;;;3.90;;
46415;SDS011;32620;51.704;7.822;2023-09-19T08:47:56;13.88;;;3.85;;
46415;SDS011;32620;51.704;7.822;2023-09-19T08:50:49;16.00;;;3.40;;
46415;SDS011;32620;51.704;7.822;2023-09-19T08:53:26;18.55;;;4.07;;
46415;SDS011;32620;51.704;7.822;2023-09-19T08:56:12;13.55;;;3.85;;
46415;SDS011;32620;51.704;7.822;2023-09-19T08:58:44;12.77;;;3.35;;
46415;SDS011;32620;51.704;7.822;2023-09-19T09:01:14;12.50;;;3.40;;
46415;SDS011;32620;51.704;7.822;2023-09-19T09:03:41;18.75;;;3.47;;
46415;SDS011;32620;51.704;7.822;2023-09-19T09:06:11;18.13;;;3.60;;
46415;SDS011;32620;51.704;7.822;2023-09-19T09:08:40;13.82;;;3.20;;
46415;SDS011;32620;51.704;7.822;2023-09-19T09:11:08;15.85;;;3.60;;
46415;SDS011;32620;51.704;7.822;2023-09-19T09:13:34;19.40;;;3.72;;
46415;SDS011;32620;51.704;7.822;2023-09-19T09:16:02;17.52;;;3.80;;
46415;SDS011;32620;51.704;7.822;2023-09-19T09:18:28;15.60;;;3.95;;
46415;SDS011;32620;51.704;7.822;2023-09-19T09:20:55;14.95;;;3.55;;
46415;SDS011;32620;51.704;7.822;2023-09-19T09:23:21;12.07;;;3.03;;
46415;SDS011;32620;51.704;7.822;2023-09-19T09:25:47;15.13;;;4.00;;
46415;SDS011;32620;51.704;7.822;2023-09-19T09:28:27;17.88;;;4.15;;
46415;SDS011;32620;51.704;7.822;2023-09-19T09:30:54;19.65;;;3.80;;
46415;SDS011;32620;51.704;7.822;2023-09-19T09:33:21;16.17;;;4.45;;
46415;SDS011;32620;51.704;7.822;2023-09-19T09:38:26;14.60;;;3.67;;
46415;SDS011;32620;51.704;7.822;2023-09-19T09:40:57;16.77;;;4.00;;
46415;SDS011;32620;51.704;7.822;2023-09-19T09:43:27;10.82;;;3.05;;
46415;SDS011;32620;51.704;7.822;2023-09-19T09:48:48;17.23;;;3.53;;
46415;SDS011;32620;51.704;7.822;2023-09-19T09:51:44;12.23;;;3.22;;
46415;SDS011;32620;51.704;7.822;2023-09-19T09:54:23;15.15;;;3.38;;
46415;SDS011;32620;51.704;7.822;2023-09-19T09:56:53;13.43;;;3.80;;
46415;SDS011;32620;51.704;7.822;2023-09-19T09:59:39;12.10;;;3.45;;
46415;SDS011;32620;51.704;7.822;2023-09-19T10:02:19;11.98;;;3.30;;
46415;SDS011;32620;51.704;7.822;2023-09-19T10:04:54;12.50;;;3.40;;
46415;SDS011;32620;51.704;7.822;2023-09-19T10:07:39;12.68;;;3.60;;
46415;SDS011;32620;51.704;7.822;2023-09-19T10:10:12;12.23;;;3.00;;
46415;SDS011;32620;51.704;7.822;2023-09-19T10:12:42;10.75;;;3.00;;
46415;SDS011;32620;51.704;7.822;2023-09-19T10:15:10;10.88;;;3.33;;
46415;SDS011;32620;51.704;7.822;2023-09-19T10:17:43;14.07;;;2.80;;
46415;SDS011;32620;51.704;7.822;2023-09-19T10:20:11;10.98;;;3.10;;
46415;SDS011;32620;51.704;7.822;2023-09-19T10:22:57;11.40;;;3.00;;
46415;SDS011;32620;51.704;7.822;2023-09-19T10:25:25;10.98;;;2.97;;
46415;SDS011;32620;51.704;7.822;2023-09-19T10:27:53;13.20;;;3.03;;
46415;SDS011;32620;51.704;7.822;2023-09-19T10:30:20;11.07;;;3.10;;
46415;SDS011;32620;51.704;7.822;2023-09-19T10:32:48;14.73;;;3.40;;
46415;SDS011;32620;51.704;7.822;2023-09-19T10:35:29;12.63;;;3.38;;
46415;SDS011;32620;51.704;7.822;2023-09-19T10:37:57;8.15;;;3.15;;
46415;SDS011;32620;51.704;7.822;2023-09-19T10:40:24;11.43;;;2.88;;
46415;SDS011;32620;51.704;7.822;2023-09-19T10:42:57;12.80;;;3.28;;
46415;SDS011;32620;51.704;7.822;2023-09-19T10:45:28;9.45;;;3.08;;
46415;SDS011;32620;51.704;7.822;2023-09-19T10:47:56;15.82;;;3.58;;
46415;SDS011;32620;51.704;7.822;2023-09-19T10:50:22;12.93;;;4.03;;
46415;SDS011;32620;51.704;7.822;2023-09-19T10:52:48;12.88;;;3.53;;
46415;SDS011;32620;51.704;7.822;2023-09-19T10:55:17;10.90;;;3.05;;
46415;SDS011;32620;51.704;7.822;2023-09-19T10:57:45;13.55;;;3.03;;
46415;SDS011;32620;51.704;7.822;2023-09-19T11:00:12;10.13;;;2.72;;
46415;SDS011;32620;51.704;7.822;2023-09-19T11:06:20;12.63;;;2.88;;
46415;SDS011;32620;51.704;7.822;2023-09-19T11:09:09;11.30;;;3.45;;
46415;SDS011;32620;51.704;7.822;2023-09-19T11:30:42;14.77;;;3.63;;
46415;SDS011;32620;51.704;7.822;2023-09-19T11:36:34;13.57;;;2.95;;
46415;SDS011;32620;51.704;7.822;2023-09-19T11:46:53;13.15;;;3.72;;
46415;SDS011;32620;51.704;7.822;2023-09-19T11:49:35;10.48;;;3.22;;
46415;SDS011;32620;51.704;7.822;2023-09-19T11:52:05;15.50;;;4.20;;
46415;SDS011;32620;51.704;7.822;2023-09-19T11:54:33;12.23;;;3.28;;
46415;SDS011;32620;51.704;7.822;2023-09-19T11:57:01;15.32;;;3.22;;
46415;SDS011;32620;51.704;7.822;2023-09-19T11:59:28;12.90;;;3.38;;
46415;SDS011;32620;51.704;7.822;2023-09-19T12:01:56;9.80;;;3.00;;
46415;SDS011;32620;51.704;7.822;2023-09-19T12:04:38;9.77;;;3.00;;
46415;SDS011;32620;51.704;7.822;2023-09-19T12:07:07;13.65;;;3.10;;
46415;SDS011;32620;51.704;7.822;2023-09-19T12:09:41;10.45;;;2.80;;
46415;SDS011;32620;51.704;7.822;2023-09-19T12:12:13;9.13;;;2.80;;
46415;SDS011;32620;51.704;7.822;2023-09-19T12:14:48;11.05;;;2.90;;
46415;SDS011;32620;51.704;7.822;2023-09-19T12:17:15;10.77;;;2.55;;
46415;SDS011;32620;51.704;7.822;2023-09-19T12:19:58;5.55;;;2.30;;
46415;SDS011;32620;51.704;7.822;2023-09-19T12:22:23;13.38;;;3.38;;
46415;SDS011;32620;51.704;7.822;2023-09-19T12:24:50;11.63;;;3.30;;
46415;SDS011;32620;51.704;7.822;2023-09-19T12:27:16;10.38;;;3.20;;
46415;SDS011;32620;51.704;7.822;2023-09-19T12:29:45;8.45;;;2.60;;
46415;SDS011;32620;51.704;7.822;2023-09-19T12:32:14;8.73;;;2.75;;
46415;SDS011;32620;51.704;7.822;2023-09-19T12:34:42;8.02;;;2.40;;
46415;SDS011;32620;51.704;7.822;2023-09-19T12:37:15;10.73;;;2.90;;
46415;SDS011;32620;51.704;7.822;2023-09-19T12:39:45;9.95;;;2.72;;
46415;SDS011;32620;51.704;7.822;2023-09-19T12:42:14;7.70;;;2.67;;
46415;SDS011;32620;51.704;7.822;2023-09-19T12:44:42;10.18;;;3.00;;
46415;SDS011;32620;51.704;7.822;2023-09-19T12:47:12;8.52;;;2.60;;
46415;SDS011;32620;51.704;7.822;2023-09-19T12:52:38;8.98;;;2.90;;
46415;SDS011;32620;51.704;7.822;2023-09-19T12:55:05;11.80;;;2.67;;
46415;SDS011;32620;51.704;7.822;2023-09-19T12:57:33;8.50;;;3.10;;
46415;SDS011;32620;51.704;7.822;2023-09-19T13:00:00;13.63;;;2.63;;
46415;SDS011;32620;51.704;7.822;2023-09-19T13:02:27;8.38;;;2.22;;
46415;SDS011;32620;51.704;7.822;2023-09-19T13:04:53;10.13;;;3.03;;
46415;SDS011;32620;51.704;7.822;2023-09-19T13:07:51;8.18;;;2.80;;
46415;SDS011;32620;51.704;7.822;2023-09-19T13:10:08;9.77;;;2.67;;
46415;SDS011;32620;51.704;7.822;2023-09-19T13:12:36;8.32;;;2.50;;
46415;SDS011;32620;51.704;7.822;2023-09-19T13:15:10;8.73;;;2.78;;
46415;SDS011;32620;51.704;7.822;2023-09-19T13:17:43;7.03;;;2.63;;
46415;SDS011;32620;51.704;7.822;2023-09-19T13:20:20;6.03;;;2.10;;
46415;SDS011;32620;51.704;7.822;2023-09-19T13:22:52;10.77;;;3.13;;
46415;SDS011;32620;51.704;7.822;2023-09-19T13:25:19;9.13;;;2.70;;
46415;SDS011;32620;51.704;7.822;2023-09-19T13:27:49;6.38;;;2.50;;
46415;SDS011;32620;51.704;7.822;2023-09-19T13:30:17;13.23;;;2.83;;
46415;SDS011;32620;51.704;7.822;2023-09-19T13:32:44;9.43;;;2.95;;
46415;SDS011;32620;51.704;7.822;2023-09-19T13:35:12;8.38;;;2.25;;
46415;SDS011;32620;51.704;7.822;2023-09-19T13:37:39;12.73;;;3.05;;
46415;SDS011;32620;51.704;7.822;2023-09-19T13:40:08;7.93;;;2.55;;
46415;SDS011;32620;51.704;7.822;2023-09-19T13:42:35;9.32;;;2.72;;
46415;SDS011;32620;51.704;7.822;2023-09-19T13:45:02;9.80;;;2.58;;
46415;SDS011;32620;51.704;7.822;2023-09-19T13:47:29;5.85;;;2.40;;
46415;SDS011;32620;51.704;7.822;2023-09-19T13:49:55;8.25;;;2.78;;
46415;SDS011;32620;51.704;7.822;2023-09-19T13:52:22;9.73;;;2.15;;
46415;SDS011;32620;51.704;7.822;2023-09-19T13:54:48;10.10;;;2.33;;
46415;SDS011;32620;51.704;7.822;2023-09-19T13:57:16;7.05;;;2.30;;
46415;SDS011;32620;51.704;7.822;2023-09-19T13:59:42;9.98;;;2.58;;
46415;SDS011;32620;51.704;7.822;2023-09-19T14:02:07;6.43;;;2.08;;
46415;SDS011;32620;51.704;7.822;2023-09-19T14:04:33;6.15;;;2.05;;
46415;SDS011;32620;51.704;7.822;2023-09-19T14:06:59;11.10;;;2.55;;
46415;SDS011;32620;51.704;7.822;2023-09-19T14:09:26;10.73;;;2.42;;
46415;SDS011;32620;51.704;7.822;2023-09-19T14:11:52;8.75;;;2.50;;
46415;SDS011;32620;51.704;7.822;2023-09-19T14:14:18;8.25;;;2.45;;
46415;SDS011;32620;51.704;7.822;2023-09-19T14:16:45;9.35;;;2.50;;
46415;SDS011;32620;51.704;7.822;2023-09-19T14:19:11;6.72;;;2.20;;
46415;SDS011;32620;51.704;7.822;2023-09-19T14:21:36;8.65;;;2.45;;
46415;SDS011;32620;51.704;7.822;2023-09-19T14:24:04;5.32;;;2.50;;
46415;SDS011;32620;51.704;7.822;2023-09-19T14:26:34;6.25;;;2.10;;
46415;SDS011;32620;51.704;7.822;2023-09-19T14:29:01;7.07;;;2.22;;
46415;SDS011;32620;51.704;7.822;2023-09-19T14:31:27;8.90;;;2.10;;
46415;SDS011;32620;51.704;7.822;2023-09-19T14:33:53;6.82;;;2.00;;
46415;SDS011;32620;51.704;7.822;2023-09-19T14:36:20;9.20;;;1.90;;
46415;SDS011;32620;51.704;7.822;2023-09-19T14:38:46;6.78;;;1.80;;
46415;SDS011;32620;51.704;7.822;2023-09-19T14:41:12;5.55;;;1.80;;
46415;SDS011;32620;51.704;7.822;2023-09-19T14:43:38;5.40;;;1.88;;
46415;SDS011;32620;51.704;7.822;2023-09-19T14:46:04;9.95;;;1.98;;
46415;SDS011;32620;51.704;7.822;2023-09-19T14:48:32;8.00;;;1.77;;
46415;SDS011;32620;51.704;7.822;2023-09-19T14:51:01;7.25;;;1.60;;
46415;SDS011;32620;51.704;7.822;2023-09-19T14:53:27;6.38;;;1.83;;
46415;SDS011;32620;51.704;7.822;2023-09-19T14:55:53;6.03;;;1.88;;
46415;SDS011;32620;51.704;7.822;2023-09-19T14:58:20;5.00;;;1.42;;
46415;SDS011;32620;51.704;7.822;2023-09-19T15:00:46;9.77;;;1.80;;
46415;SDS011;32620;51.704;7.822;2023-09-19T15:03:12;7.43;;;2.20;;
46415;SDS011;32620;51.704;7.822;2023-09-19T15:05:38;4.13;;;1.70;;
46415;SDS011;32620;51.704;7.822;2023-09-19T15:08:04;7.70;;;1.60;;
46415;SDS011;32620;51.704;7.822;2023-09-19T15:10:30;7.80;;;1.75;;
46415;SDS011;32620;51.704;7.822;2023-09-19T15:12:56;6.75;;;1.58;;
46415;SDS011;32620;51.704;7.822;2023-09-19T15:15:22;4.75;;;1.85;;
46415;SDS011;32620;51.704;7.822;2023-09-19T15:17:47;4.82;;;1.80;;
46415;SDS011;32620;51.704;7.822;2023-09-19T15:20:13;8.80;;;1.75;;
46415;SDS011;32620;51.704;7.822;2023-09-19T15:22:39;4.07;;;1.50;;
46415;SDS011;32620;51.704;7.822;2023-09-19T15:25:05;7.68;;;1.85;;
46415;SDS011;32620;51.704;7.822;2023-09-19T15:27:31;7.03;;;1.90;;
46415;SDS011;32620;51.704;7.822;2023-09-19T15:29:59;5.53;;;1.80;;
46415;SDS011;32620;51.704;7.822;2023-09-19T15:32:25;5.65;;;1.85;;
46415;SDS011;32620;51.704;7.822;2023-09-19T15:34:51;4.32;;;1.33;;
46415;SDS011;32620;51.704;7.822;2023-09-19T15:37:17;4.68;;;1.63;;
46415;SDS011;32620;51.704;7.822;2023-09-19T15:39:42;5.60;;;1.80;;